createdAt,value
2022-08-03T00:02:20.694Z,81.10
2022-08-03T00:04:49.124Z,81.27
2022-08-03T00:07:19.808Z,81.50
2022-08-03T00:09:48.044Z,81.49
2022-08-03T00:12:16.878Z,81.04
2022-08-03T00:14:45.604Z,80.95
2022-08-03T00:17:13.953Z,81.15
2022-08-03T00:19:42.201Z,80.93
2022-08-03T00:22:10.836Z,81.15
2022-08-03T00:24:39.074Z,81.17
2022-08-03T00:27:07.349Z,81.50
2022-08-03T00:30:00.198Z,81.80
2022-08-03T00:32:24.725Z,81.65
2022-08-03T00:34:58.638Z,81.68
2022-08-03T00:37:41.641Z,81.82
2022-08-03T00:40:15.291Z,81.93
2022-08-03T00:43:07.692Z,81.49
2022-08-03T00:45:41.539Z,81.49
2022-08-03T00:48:29.792Z,81.13
2022-08-03T00:50:59.289Z,81.38
2022-08-03T00:53:28.332Z,81.45
2022-08-03T00:55:56.697Z,81.60
2022-08-03T00:58:25.507Z,81.41
2022-08-03T01:06:05.142Z,81.22
2022-08-03T01:08:53.811Z,81.64
2022-08-03T01:11:25.051Z,82.21
2022-08-03T01:14:18.732Z,82.16
2022-08-03T01:17:02.721Z,82.24
2022-08-03T01:20:09.215Z,82.43
2022-08-03T01:23:09.080Z,82.23
2022-08-03T01:25:54.420Z,81.97
2022-08-03T01:28:51.094Z,82.24
2022-08-03T01:31:26.927Z,82.58
2022-08-03T01:34:02.802Z,82.65
2022-08-03T01:36:38.570Z,82.51
2022-08-03T01:39:12.003Z,82.80
2022-08-03T01:41:49.639Z,82.91
2022-08-03T01:44:28.982Z,82.81
2022-08-03T01:47:00.643Z,82.72
2022-08-03T01:49:37.471Z,83.01
2022-08-03T01:52:07.179Z,82.91
2022-08-03T01:54:38.018Z,82.98
2022-08-03T01:57:07.216Z,82.67
2022-08-03T01:59:37.656Z,82.79
2022-08-03T02:02:28.663Z,82.57
2022-08-03T02:04:58.900Z,82.68
2022-08-03T02:07:31.698Z,82.91
2022-08-03T02:10:03.986Z,82.70
2022-08-03T02:12:34.978Z,82.61
2022-08-03T02:15:04.829Z,82.91
2022-08-03T02:17:39.070Z,82.75
2022-08-03T02:20:14.034Z,82.84
2022-08-03T02:22:44.922Z,82.62
2022-08-03T02:25:15.041Z,82.62
2022-08-03T02:27:49.531Z,82.40
2022-08-03T02:30:19.827Z,82.61
2022-08-03T02:32:56.944Z,82.91
2022-08-03T02:35:27.646Z,83.00
2022-08-03T02:38:01.429Z,82.90
2022-08-03T02:40:31.650Z,82.87
2022-08-03T02:43:04.131Z,82.56
2022-08-03T02:45:36.351Z,82.70
2022-08-03T02:48:07.074Z,82.89
2022-08-03T02:50:35.360Z,83.06
2022-08-03T02:53:04.841Z,82.69
2022-08-03T02:55:36.016Z,82.64
2022-08-03T02:58:13.441Z,82.56
2022-08-03T03:00:44.290Z,82.29
2022-08-03T03:03:13.951Z,82.58
2022-08-03T03:05:55.824Z,82.52
2022-08-03T03:08:28.935Z,82.50
2022-08-03T03:11:00.172Z,82.72
2022-08-03T03:13:30.445Z,82.68
2022-08-03T03:16:03.745Z,82.61
2022-08-03T03:18:34.647Z,82.36
2022-08-03T03:21:05.160Z,82.03
2022-08-03T03:23:36.860Z,81.99
2022-08-03T03:26:06.344Z,82.04
2022-08-03T03:28:37.248Z,82.04
2022-08-03T03:31:07.695Z,82.31
2022-08-03T03:33:37.354Z,82.76
2022-08-03T03:36:07.161Z,83.40
2022-08-03T03:38:35.803Z,83.48
2022-08-03T03:41:06.276Z,83.24
2022-08-03T03:43:34.792Z,83.17
2022-08-03T03:46:03.976Z,82.62
2022-08-03T03:48:33.237Z,82.94
2022-08-03T03:51:01.781Z,83.53
2022-08-03T03:53:30.081Z,83.35
2022-08-03T03:56:02.688Z,83.17
2022-08-03T03:58:33.091Z,83.14
2022-08-03T04:01:01.943Z,82.99
2022-08-03T04:03:30.467Z,83.36
2022-08-03T04:06:18.133Z,83.57
2022-08-03T04:09:05.207Z,83.59
2022-08-03T04:11:59.154Z,83.52
2022-08-03T04:14:33.023Z,83.88
2022-08-03T04:17:07.670Z,83.24
2022-08-03T04:19:45.161Z,82.57
2022-08-03T04:22:18.942Z,81.89
2022-08-03T04:24:51.145Z,80.83
2022-08-03T04:27:26.198Z,80.12
2022-08-03T04:29:57.007Z,79.08
2022-08-03T04:32:29.021Z,78.20
2022-08-03T04:34:58.231Z,77.33
2022-08-03T04:37:43.364Z,76.54
2022-08-03T04:40:18.431Z,75.70
2022-08-03T04:42:54.020Z,75.36
2022-08-03T04:45:23.162Z,74.65
2022-08-03T04:47:52.875Z,73.73
2022-08-03T04:50:22.255Z,73.07
2022-08-03T04:53:07.246Z,73.41
2022-08-03T04:55:36.017Z,73.68
2022-08-03T04:58:04.866Z,74.27
2022-08-03T05:00:33.390Z,74.52
2022-08-03T05:03:01.833Z,74.67
2022-08-03T05:05:36.231Z,75.08
2022-08-03T05:08:20.585Z,75.71
2022-08-03T05:10:59.332Z,75.87
2022-08-03T05:13:30.616Z,76.33
2022-08-03T05:15:58.937Z,76.61
2022-08-03T05:18:27.210Z,76.53
2022-08-03T05:20:56.045Z,76.57
2022-08-03T05:23:24.201Z,76.69
2022-08-03T05:25:52.451Z,77.36
2022-08-03T05:28:21.022Z,77.54
2022-08-03T05:30:49.660Z,77.53
2022-08-03T05:33:17.838Z,78.34
2022-08-03T05:35:57.557Z,78.23
2022-08-03T05:38:34.186Z,78.58
2022-08-03T05:41:22.032Z,78.56
2022-08-03T05:43:54.116Z,78.57
2022-08-03T05:46:23.400Z,78.58
2022-08-03T05:48:52.137Z,78.68
2022-08-03T05:51:20.713Z,79.46
2022-08-03T05:53:49.424Z,79.61
2022-08-03T05:56:17.669Z,79.20
2022-08-03T05:58:47.597Z,79.00
2022-08-03T06:01:17.484Z,78.18
2022-08-03T06:03:46.453Z,78.26
2022-08-03T06:06:15.191Z,78.48
2022-08-03T06:08:44.732Z,78.59
2022-08-03T06:11:13.515Z,78.72
2022-08-03T06:13:41.876Z,78.19
2022-08-03T06:16:10.809Z,78.22
2022-08-03T06:18:40.571Z,78.22
2022-08-03T06:21:15.139Z,78.51
2022-08-03T06:23:54.726Z,78.72
2022-08-03T06:26:25.404Z,77.67
2022-08-03T06:28:55.394Z,77.57
2022-08-03T06:31:33.158Z,77.66
2022-08-03T06:34:33.360Z,77.91
2022-08-03T06:36:58.593Z,77.76
2022-08-03T06:39:30.853Z,77.92
2022-08-03T06:41:59.152Z,78.25
2022-08-03T06:44:27.590Z,78.57
2022-08-03T06:46:56.167Z,78.52
2022-08-03T06:49:24.916Z,78.99
2022-08-03T06:52:03.997Z,79.23
2022-08-03T06:54:36.283Z,80.00
2022-08-03T06:57:05.454Z,80.92
2022-08-03T07:00:10.698Z,80.71
2022-08-03T07:02:22.741Z,80.44
2022-08-03T07:04:54.100Z,78.16
2022-08-03T07:07:24.475Z,76.63
2022-08-03T07:09:56.418Z,76.11
2022-08-03T07:12:27.143Z,76.25
2022-08-03T07:15:00.317Z,76.39
2022-08-03T07:17:32.429Z,76.59
2022-08-03T07:20:03.893Z,76.95
2022-08-03T07:22:32.412Z,77.45
2022-08-03T07:25:01.214Z,77.81
2022-08-03T07:27:30.493Z,78.58
2022-08-03T07:29:59.206Z,79.03
2022-08-03T07:32:31.172Z,78.95
2022-08-03T07:35:01.033Z,78.36
2022-08-03T07:37:30.733Z,76.84
2022-08-03T07:40:00.663Z,75.24
2022-08-03T07:42:29.836Z,73.81
2022-08-03T07:44:59.330Z,73.93
2022-08-03T07:47:34.796Z,74.03
2022-08-03T07:50:06.504Z,72.97
2022-08-03T07:52:51.944Z,73.36
2022-08-03T07:55:23.158Z,71.83
2022-08-03T07:58:24.163Z,71.14
2022-08-03T08:00:53.407Z,71.00
2022-08-03T08:03:26.995Z,71.08
2022-08-03T08:05:55.391Z,71.23
2022-08-03T08:08:23.824Z,71.68
2022-08-03T08:10:57.711Z,72.16
2022-08-03T08:13:27.305Z,72.10
2022-08-03T08:15:55.779Z,71.91
2022-08-03T08:18:29.672Z,71.31
2022-08-03T08:20:58.779Z,70.48
2022-08-03T08:23:42.149Z,68.97
2022-08-03T08:26:12.431Z,67.54
2022-08-03T08:28:41.058Z,66.51
2022-08-03T08:31:09.356Z,66.31
2022-08-03T08:36:26.905Z,65.96
2022-08-03T08:38:55.435Z,66.45
2022-08-03T08:41:24.019Z,65.92
2022-08-03T08:44:01.842Z,64.81
2022-08-03T08:46:33.193Z,64.33
2022-08-03T08:49:04.880Z,64.56
2022-08-03T08:51:54.443Z,65.28
2022-08-03T08:54:27.231Z,66.27
2022-08-03T08:57:02.062Z,66.62
2022-08-03T08:59:48.189Z,66.76
2022-08-03T09:02:20.676Z,66.81
2022-08-03T09:04:49.635Z,67.29
2022-08-03T09:07:20.423Z,67.24
2022-08-03T09:10:12.313Z,66.56
2022-08-03T09:12:47.681Z,66.05
2022-08-03T09:15:22.052Z,65.64
2022-08-03T09:17:52.914Z,64.90
2022-08-03T09:20:23.391Z,64.89
2022-08-03T09:22:59.878Z,64.97
2022-08-03T09:25:37.584Z,65.13
2022-08-03T09:28:07.395Z,64.89
2022-08-03T09:30:37.084Z,64.16
2022-08-03T09:33:08.383Z,63.38
2022-08-03T09:35:57.812Z,64.13
2022-08-03T09:38:27.703Z,63.48
2022-08-03T09:40:59.988Z,63.83
2022-08-03T09:43:45.856Z,63.59
2022-08-03T09:46:14.114Z,63.08
2022-08-03T09:48:42.341Z,62.99
2022-08-03T09:52:17.965Z,61.29
2022-08-03T09:54:05.771Z,62.02
2022-08-03T09:56:44.869Z,61.80
2022-08-03T09:59:23.411Z,62.07
2022-08-03T10:01:52.715Z,62.26
2022-08-03T10:04:22.332Z,62.54
2022-08-03T10:07:09.358Z,61.65
2022-08-03T10:09:38.503Z,60.93
2022-08-03T10:12:11.538Z,60.98
2022-08-03T10:14:45.898Z,60.89
2022-08-03T10:17:14.574Z,60.04
2022-08-03T10:19:43.329Z,60.19
2022-08-03T10:22:19.701Z,60.37
2022-08-03T10:24:59.697Z,60.10
2022-08-03T10:27:34.294Z,59.43
2022-08-03T10:30:06.193Z,59.26
2022-08-03T10:32:43.290Z,59.24
2022-08-03T10:35:20.216Z,59.37
2022-08-03T10:37:56.673Z,59.36
2022-08-03T10:43:26.403Z,58.04
2022-08-03T10:45:56.843Z,58.82
2022-08-03T10:48:25.504Z,59.01
2022-08-03T10:50:54.186Z,59.58
2022-08-03T10:53:54.270Z,58.39
2022-08-03T10:56:54.346Z,58.08
2022-08-03T10:59:41.488Z,58.26
2022-08-03T11:02:10.338Z,57.87
2022-08-03T11:04:38.634Z,58.65
2022-08-03T11:07:23.923Z,57.99
2022-08-03T11:09:56.706Z,58.69
2022-08-03T11:12:32.982Z,58.45
2022-08-03T11:15:07.775Z,57.87
2022-08-03T11:17:46.449Z,57.31
2022-08-03T11:20:54.342Z,56.98
2022-08-03T11:24:02.418Z,57.04
2022-08-03T11:26:31.937Z,57.05
2022-08-03T11:29:29.422Z,57.28
2022-08-03T11:31:58.132Z,58.13
2022-08-03T11:34:26.753Z,58.60
2022-08-03T11:37:27.273Z,57.57
2022-08-03T11:39:58.953Z,57.36
2022-08-03T11:42:29.460Z,57.28
2022-08-03T11:45:00.440Z,57.32
2022-08-03T11:47:30.635Z,57.42
2022-08-03T11:50:02.443Z,58.66
2022-08-03T11:52:39.679Z,58.76
2022-08-03T11:55:12.637Z,58.98
2022-08-03T11:58:58.270Z,59.95
2022-08-03T12:00:32.081Z,59.39
2022-08-03T12:03:07.697Z,58.88
2022-08-03T12:05:51.827Z,57.50
2022-08-03T12:08:26.750Z,57.12
2022-08-03T12:10:56.839Z,57.18
2022-08-03T12:14:43.925Z,56.95
2022-08-03T12:16:20.939Z,56.61
2022-08-03T12:19:05.007Z,56.21
2022-08-03T12:21:33.479Z,55.86
2022-08-03T12:24:05.550Z,55.82
2022-08-03T12:26:56.807Z,55.47
2022-08-03T12:29:29.258Z,55.47
2022-08-03T12:31:57.648Z,56.05
2022-08-03T12:34:47.394Z,56.48
2022-08-03T12:37:22.657Z,56.35
2022-08-03T12:40:07.740Z,55.95
2022-08-03T12:42:41.127Z,55.43
2022-08-03T12:45:23.302Z,54.50
2022-08-03T12:47:53.224Z,54.82
2022-08-03T12:50:26.107Z,53.69
2022-08-03T12:52:55.060Z,52.88
2022-08-03T12:55:24.096Z,54.26
2022-08-03T12:57:52.326Z,53.30
2022-08-03T13:00:28.889Z,52.88
2022-08-03T13:05:57.606Z,53.70
2022-08-03T13:08:26.184Z,53.95
2022-08-03T13:10:54.474Z,53.53
2022-08-03T13:13:41.277Z,53.13
2022-08-03T13:16:09.552Z,53.96
2022-08-03T13:18:38.328Z,54.12
2022-08-03T13:21:09.410Z,52.22
2022-08-03T13:23:37.682Z,51.68
2022-08-03T13:26:06.184Z,53.01
2022-08-03T13:28:34.519Z,53.76
2022-08-03T13:31:02.871Z,54.10
2022-08-03T13:33:31.805Z,53.00
2022-08-03T13:36:00.424Z,53.82
2022-08-03T13:38:31.594Z,53.45
2022-08-03T13:41:02.436Z,53.07
2022-08-03T13:43:33.286Z,53.56
2022-08-03T13:46:01.593Z,54.04
2022-08-03T13:48:35.908Z,53.81
2022-08-03T13:51:22.216Z,52.56
2022-08-03T13:53:52.530Z,52.65
2022-08-03T13:56:20.820Z,51.22
2022-08-03T13:58:49.190Z,50.95
2022-08-03T14:01:29.736Z,52.69
2022-08-03T14:04:06.036Z,53.53
2022-08-03T14:06:46.035Z,52.95
2022-08-03T14:09:14.892Z,52.50
2022-08-03T14:12:05.231Z,51.44
2022-08-03T14:14:33.267Z,49.48
2022-08-03T14:17:01.774Z,49.93
2022-08-03T14:19:30.699Z,50.93
2022-08-03T14:22:06.263Z,50.81
2022-08-03T14:24:35.333Z,49.79
2022-08-03T14:27:09.030Z,50.18
2022-08-03T14:29:37.872Z,51.47
2022-08-03T14:32:11.664Z,51.53
2022-08-03T14:34:41.699Z,50.70
2022-08-03T14:37:12.051Z,51.75
2022-08-03T14:42:29.054Z,51.93
2022-08-03T14:45:02.455Z,50.91
2022-08-03T14:47:34.028Z,49.80
2022-08-03T14:50:37.226Z,52.45
2022-08-03T14:53:09.438Z,51.72
2022-08-03T14:55:38.933Z,51.81
2022-08-03T14:58:20.794Z,52.66
2022-08-03T15:00:52.101Z,52.83
2022-08-03T15:03:24.045Z,51.69
2022-08-03T15:05:56.938Z,52.10
2022-08-03T15:08:26.600Z,51.02
2022-08-03T15:10:55.180Z,51.20
2022-08-03T15:13:23.648Z,52.00
2022-08-03T15:15:52.280Z,50.98
2022-08-03T15:18:20.584Z,49.76
2022-08-03T15:20:50.584Z,49.86
2022-08-03T15:23:19.813Z,50.34
2022-08-03T15:26:03.956Z,51.13
2022-08-03T15:28:37.467Z,53.02
2022-08-03T15:31:06.970Z,53.68
2022-08-03T15:33:35.506Z,54.07
2022-08-03T15:36:04.925Z,53.81
2022-08-03T15:38:33.142Z,54.54
2022-08-03T15:41:03.523Z,54.43
2022-08-03T15:43:32.418Z,54.24
2022-08-03T15:46:30.088Z,53.25
2022-08-03T15:48:49.246Z,52.28
2022-08-03T15:51:17.593Z,51.68
2022-08-03T15:53:45.824Z,51.19
2022-08-03T15:56:18.445Z,51.30
2022-08-03T15:59:10.193Z,50.90
2022-08-03T16:01:39.062Z,50.38
2022-08-03T16:04:07.442Z,51.32
2022-08-03T16:06:36.592Z,53.13
2022-08-03T16:09:23.699Z,54.18
2022-08-03T16:11:55.779Z,55.60
2022-08-03T16:14:32.145Z,55.25
2022-08-03T16:17:01.773Z,55.05
2022-08-03T16:19:30.545Z,54.77
2022-08-03T16:21:58.827Z,56.24
2022-08-03T16:24:28.516Z,57.29
2022-08-03T16:26:57.294Z,57.74
2022-08-03T16:29:25.572Z,58.12
2022-08-03T16:31:53.788Z,57.76
2022-08-03T16:34:22.453Z,58.44
2022-08-03T16:36:51.349Z,58.00
2022-08-03T16:39:19.735Z,58.52
2022-08-03T16:42:00.259Z,59.27
2022-08-03T16:44:31.293Z,59.06
2022-08-03T16:47:02.334Z,59.50
2022-08-03T16:49:53.662Z,60.46
2022-08-03T16:52:20.533Z,60.99
2022-08-03T16:54:53.608Z,61.13
2022-08-03T16:57:59.582Z,61.26
2022-08-03T17:00:33.688Z,61.39
2022-08-03T17:03:19.074Z,61.38
2022-08-03T17:05:50.223Z,62.39
2022-08-03T17:08:26.764Z,62.78
2022-08-03T17:10:56.388Z,63.26
2022-08-03T17:13:39.495Z,63.44
2022-08-03T17:16:10.619Z,63.51
2022-08-03T17:19:02.071Z,63.74
2022-08-03T17:21:32.466Z,63.86
2022-08-03T17:24:12.415Z,64.28
2022-08-03T17:26:43.639Z,64.34
2022-08-03T17:29:17.187Z,64.71
2022-08-03T17:31:49.391Z,64.89
2022-08-03T17:34:19.624Z,65.26
2022-08-03T17:37:05.799Z,65.23
2022-08-03T17:42:29.363Z,65.56
2022-08-03T17:45:02.491Z,65.63
2022-08-03T17:50:21.132Z,65.88
2022-08-03T17:53:07.263Z,65.82
2022-08-03T17:55:57.429Z,65.84
2022-08-03T17:58:43.673Z,66.07
2022-08-03T18:02:03.175Z,66.36
2022-08-03T18:04:29.782Z,66.59
2022-08-03T18:07:00.727Z,66.58
2022-08-03T18:10:05.102Z,66.47
2022-08-03T18:13:01.985Z,66.57
2022-08-03T18:15:50.407Z,66.71
2022-08-03T18:18:32.211Z,66.71
2022-08-03T18:21:04.553Z,66.59
2022-08-03T18:23:37.683Z,66.46
2022-08-03T18:26:11.828Z,66.50
2022-08-03T18:28:41.352Z,66.85
2022-08-03T18:31:12.742Z,67.20
2022-08-03T18:34:18.573Z,67.67
2022-08-03T18:36:52.793Z,67.96
2022-08-03T18:39:26.082Z,67.84
2022-08-03T18:41:54.694Z,67.77
2022-08-03T18:44:52.834Z,68.14
2022-08-03T18:47:51.692Z,68.33
2022-08-03T18:50:33.241Z,68.67
2022-08-03T18:53:20.024Z,68.69
2022-08-03T18:56:18.631Z,68.71
2022-08-03T18:58:52.504Z,68.93
2022-08-03T19:02:00.250Z,68.91
2022-08-03T19:04:35.569Z,69.05
2022-08-03T19:07:08.542Z,69.42
2022-08-03T19:09:45.858Z,69.45
2022-08-03T19:12:30.726Z,69.55
2022-08-03T19:15:10.627Z,69.55
2022-08-03T19:17:50.242Z,69.71
2022-08-03T19:20:26.786Z,70.01
2022-08-03T19:22:58.551Z,70.40
2022-08-03T19:25:34.356Z,70.56
2022-08-03T19:28:06.293Z,71.06
2022-08-03T19:30:39.116Z,71.17
2022-08-03T19:33:10.732Z,71.40
2022-08-03T19:35:51.610Z,71.38
2022-08-03T19:38:28.348Z,71.82
2022-08-03T19:41:02.146Z,72.14
2022-08-03T19:43:53.390Z,71.96
2022-08-03T19:46:30.276Z,72.06
2022-08-03T19:52:02.618Z,72.47
2022-08-03T19:54:53.250Z,72.52
2022-08-03T19:57:25.469Z,72.66
2022-08-03T19:59:58.856Z,72.81
2022-08-03T20:02:33.869Z,72.67
2022-08-03T20:05:02.372Z,72.84
2022-08-03T20:07:32.992Z,72.82
2022-08-03T20:10:04.941Z,72.96
2022-08-03T20:12:39.048Z,73.07
2022-08-03T20:15:09.385Z,73.26
2022-08-03T20:17:57.006Z,73.08
2022-08-03T20:20:31.093Z,73.18
2022-08-03T20:23:01.213Z,73.14
2022-08-03T20:25:38.349Z,73.33
2022-08-03T20:28:13.443Z,73.50
2022-08-03T20:30:47.723Z,73.80
2022-08-03T20:33:18.673Z,73.58
2022-08-03T20:35:51.303Z,73.97
2022-08-03T20:38:20.026Z,74.02
2022-08-03T20:40:56.601Z,74.11
2022-08-03T20:43:27.540Z,74.17
2022-08-03T20:46:01.244Z,74.23
2022-08-03T20:48:48.702Z,74.25
2022-08-03T20:51:19.626Z,74.19
2022-08-03T20:53:59.759Z,74.31
2022-08-03T20:56:37.065Z,74.36
2022-08-03T20:59:14.918Z,74.53
2022-08-03T21:01:44.406Z,74.57
2022-08-03T21:04:13.476Z,74.56
2022-08-03T21:06:52.995Z,74.75
2022-08-03T21:09:39.875Z,74.82
2022-08-03T21:12:18.193Z,74.92
2022-08-03T21:12:55.172Z,65.76
2022-08-03T21:13:12.958Z,72.10
2022-08-03T21:15:02.438Z,75.07
2022-08-03T21:17:40.887Z,75.24
2022-08-03T21:20:12.644Z,75.29
2022-08-03T21:22:45.936Z,75.39
2022-08-03T21:25:16.412Z,75.19
2022-08-03T21:27:45.267Z,75.24
2022-08-03T21:30:15.485Z,75.31
2022-08-03T21:32:46.400Z,75.34
2022-08-03T21:35:17.354Z,75.54
2022-08-03T21:37:47.127Z,75.39
2022-08-03T21:40:17.263Z,75.20
2022-08-03T21:42:45.752Z,75.18
2022-08-03T21:45:17.432Z,75.39
2022-08-03T21:47:47.542Z,75.38
2022-08-03T21:50:16.935Z,75.51
2022-08-03T21:52:48.033Z,75.36
2022-08-03T21:55:18.364Z,75.31
2022-08-03T21:58:00.674Z,75.30
2022-08-03T22:00:29.188Z,75.50
2022-08-03T22:03:15.401Z,75.30
2022-08-03T22:05:46.629Z,75.31
2022-08-03T22:08:17.186Z,75.24
2022-08-03T22:10:46.713Z,75.47
2022-08-03T22:13:42.987Z,75.20
2022-08-03T22:16:09.415Z,75.46
2022-08-03T22:18:40.809Z,75.36
2022-08-03T22:21:15.372Z,75.37
2022-08-03T22:23:51.912Z,75.48
2022-08-03T22:26:34.816Z,75.70
2022-08-03T22:29:08.195Z,75.38
2022-08-03T22:31:58.897Z,75.41
2022-08-03T22:34:28.780Z,75.26
2022-08-03T22:37:02.442Z,75.41
2022-08-03T22:39:31.494Z,75.32
2022-08-03T22:42:00.264Z,75.21
2022-08-03T22:44:29.712Z,75.25
2022-08-03T22:46:58.761Z,75.26
2022-08-03T22:49:28.592Z,75.40
2022-08-03T22:51:58.341Z,75.21
2022-08-03T22:54:28.150Z,75.27
2022-08-03T22:56:58.089Z,75.42
2022-08-03T22:59:39.208Z,75.24
2022-08-03T23:02:21.174Z,75.50
2022-08-03T23:04:53.576Z,75.58
2022-08-03T23:07:30.055Z,75.42
2022-08-03T23:10:03.156Z,75.47
2022-08-03T23:12:35.885Z,75.40
2022-08-03T23:15:09.014Z,75.58
2022-08-03T23:17:58.013Z,75.76
2022-08-03T23:20:28.902Z,75.68
2022-08-03T23:23:03.177Z,75.64
2022-08-03T23:25:34.511Z,76.06
2022-08-03T23:28:05.642Z,76.12
2022-08-03T23:30:37.418Z,76.31
2022-08-03T23:33:08.513Z,76.49
2022-08-03T23:36:28.468Z,76.54
2022-08-03T23:38:46.414Z,76.79
2022-08-03T23:41:16.720Z,76.83
2022-08-03T23:43:52.293Z,76.94
2022-08-03T23:46:23.880Z,76.76
2022-08-03T23:48:56.513Z,76.59
2022-08-03T23:51:37.220Z,76.81
2022-08-03T23:54:24.196Z,76.86
2022-08-03T23:57:21.947Z,76.70
